Time;durP1;ratioP1;P1;durP2;ratioP2;P2;SDS_P1;SDS_P2;PMS_P1;PMS_P2;Temp;Humidity;BMP_temperature;BMP_pressure;BME280_temperature;BME280_humidity;BME280_pressure;Samples;Min_cycle;Max_cycle;Signal;HPM_P1;HPM_P2
2022/05/01 00:07:39;;;;;;;;;;;18.70;69.20;;;;;;21164309;28;19927;-58
2022/05/01 00:17:42;;;;;;;;;;;18.60;69.90;;;;;;21164728;28;20338;-58
2022/05/01 00:27:43;;;;;;;;;;;18.40;67.20;;;;;;21164635;28;19928;-57
2022/05/01 00:37:45;;;;;;;;;;;18.30;66.60;;;;;;21163830;28;19968;-61
2022/05/01 00:47:47;;;;;;;;;;;18.20;67.00;;;;;;21162693;28;19924;-60
2022/05/01 00:57:48;;;;;;;;;;;18.10;67.00;;;;;;21162159;28;19924;-61
2022/05/01 01:07:50;;;;;;;;;;;18.20;66.90;;;;;;21161888;28;19931;-59
2022/05/01 01:17:54;;;;;;;;;;;18.20;67.10;;;;;;21169544;28;19927;-59
2022/05/01 01:28:05;;;;;;;;;;;18.20;66.90;;;;;;21178259;28;19967;-58
2022/05/01 01:38:09;;;;;;;;;;;18.20;66.30;;;;;;21177846;28;20311;-58
2022/05/01 01:48:24;;;;;;;;;;;18.30;66.00;;;;;;21176801;28;19924;-57
2022/05/01 01:58:41;;;;;;;;;;;18.40;66.20;;;;;;21176511;28;20283;-59
2022/05/01 02:09:06;;;;;;;;;;;18.40;65.90;;;;;;21175118;28;19949;-57
2022/05/01 02:19:20;;;;;;;;;;;18.40;65.70;;;;;;21174533;28;19930;-58
2022/05/01 02:29:32;;;;;;;;;;;18.20;66.50;;;;;;21172614;28;19959;-59
2022/05/01 02:39:45;;;;;;;;;;;18.10;67.30;;;;;;21174341;28;20014;-58
2022/05/01 02:49:52;;;;;;;;;;;17.70;68.30;;;;;;21171768;28;19924;-58
2022/05/01 02:59:58;;;;;;;;;;;17.50;69.10;;;;;;21170853;28;20000;-58
2022/05/01 03:10:05;;;;;;;;;;;17.30;69.60;;;;;;21170713;28;19931;-57
2022/05/01 03:30:34;;;;;;;;;;;17.10;70.70;;;;;;21168405;28;19923;-58
2022/05/01 03:40:38;;;;;;;;;;;17.00;70.70;;;;;;21168166;28;20460;-58
2022/05/01 03:50:40;;;;;;;;;;;16.90;70.70;;;;;;21167490;28;19924;-59
2022/05/01 04:00:44;;;;;;;;;;;16.90;70.60;;;;;;21166620;28;20352;-58
2022/05/01 04:10:49;;;;;;;;;;;16.90;69.80;;;;;;21165165;28;19924;-58
2022/05/01 04:20:53;;;;;;;;;;;16.90;69.00;;;;;;21147100;28;19931;-58
2022/05/01 04:30:56;;;;;;;;;;;16.70;65.20;;;;;;21164318;28;19924;-58
2022/05/01 04:40:59;;;;;;;;;;;16.60;64.60;;;;;;21164167;28;20379;-58
2022/05/01 04:51:08;;;;;;;;;;;16.50;66.30;;;;;;21167055;28;20432;-58
2022/05/01 05:01:10;;;;;;;;;;;16.30;68.20;;;;;;21181454;28;19928;-56
2022/05/01 05:11:12;;;;;;;;;;;16.00;68.20;;;;;;21180185;28;20280;-58
2022/05/01 05:21:15;;;;;;;;;;;15.90;68.40;;;;;;21179609;28;19935;-59
2022/05/01 05:31:16;;;;;;;;;;;15.80;68.00;;;;;;21179396;28;20108;-59
2022/05/01 05:41:18;;;;;;;;;;;15.60;67.80;;;;;;21178166;28;19924;-58
2022/05/01 05:51:20;;;;;;;;;;;15.50;67.70;;;;;;21158544;28;20367;-59
2022/05/01 06:01:22;;;;;;;;;;;15.40;67.60;;;;;;21175790;28;19924;-61
2022/05/01 06:11:25;;;;;;;;;;;15.50;67.30;;;;;;21175031;28;19923;-58
2022/05/01 06:21:27;;;;;;;;;;;15.60;66.60;;;;;;21174476;28;20382;-58
2022/05/01 06:31:29;;;;;;;;;;;15.60;66.30;;;;;;21172491;28;19923;-59
2022/05/01 06:41:32;;;;;;;;;;;15.80;66.20;;;;;;21172359;28;19931;-58
2022/05/01 06:51:34;;;;;;;;;;;16.40;64.70;;;;;;21153515;28;19928;-61
2022/05/01 07:01:37;;;;;;;;;;;16.80;63.40;;;;;;21153022;28;20351;-59
2022/05/01 07:11:38;;;;;;;;;;;17.20;61.50;;;;;;21169566;28;20467;-60
2022/05/01 07:21:40;;;;;;;;;;;17.80;60.00;;;;;;21168800;28;19930;-60
2022/05/01 07:31:42;;;;;;;;;;;18.50;57.00;;;;;;21150270;28;19930;-60
2022/05/01 07:41:44;;;;;;;;;;;19.00;55.90;;;;;;21167200;28;19924;-59
2022/05/01 07:51:46;;;;;;;;;;;19.50;53.50;;;;;;21166844;28;20398;-64
2022/05/01 08:01:47;;;;;;;;;;;19.60;53.20;;;;;;21166388;28;19923;-60
2022/05/01 08:11:49;;;;;;;;;;;19.90;52.60;;;;;;21165729;28;19924;-62
2022/05/01 08:21:52;;;;;;;;;;;20.30;50.10;;;;;;21172881;28;19928;-61
2022/05/01 08:31:55;;;;;;;;;;;20.50;50.70;;;;;;21163805;28;19967;-63
2022/05/01 08:41:58;;;;;;;;;;;20.80;49.60;;;;;;21149371;28;19947;-64
2022/05/01 08:52:00;;;;;;;;;;;20.90;49.40;;;;;;21079325;28;19978;-55
2022/05/01 09:02:02;;;;;;;;;;;21.50;49.60;;;;;;21019904;28;19947;-60
2022/05/01 09:22:27;;;;;;;;;;;22.10;48.80;;;;;;21022644;28;20539;-59
2022/05/01 09:32:35;;;;;;;;;;;22.40;47.40;;;;;;21005277;28;20034;-61
2022/05/01 09:42:36;;;;;;;;;;;22.60;46.10;;;;;;21011835;28;19931;-57
2022/05/01 09:53:00;;;;;;;;;;;22.70;45.80;;;;;;21071743;28;19963;-56
2022/05/01 10:03:21;;;;;;;;;;;22.90;45.40;;;;;;21069083;28;19924;-60
2022/05/01 10:13:24;;;;;;;;;;;23.20;44.40;;;;;;21034815;28;20396;-58
2022/05/01 10:23:26;;;;;;;;;;;23.10;45.00;;;;;;21003235;28;19964;-61
2022/05/01 10:33:46;;;;;;;;;;;23.10;45.00;;;;;;20984429;28;19975;-60
2022/05/01 10:43:56;;;;;;;;;;;23.20;43.40;;;;;;20987149;28;19925;-63
2022/05/01 10:54:10;;;;;;;;;;;23.20;42.10;;;;;;20999642;28;19959;-61
2022/05/01 11:04:19;;;;;;;;;;;23.70;36.50;;;;;;20995629;28;19982;-60
2022/05/01 11:14:22;;;;;;;;;;;;;;;;;;21058650;28;19931;-62
2022/05/01 11:24:41;;;;;;;;;;;24.00;40.90;;;;;;21083980;28;19935;-64
2022/05/01 11:34:50;;;;;;;;;;;24.20;41.30;;;;;;21083048;28;19924;-62
2022/05/01 11:44:54;;;;;;;;;;;24.30;40.90;;;;;;21082512;28;19928;-62
2022/05/01 11:54:57;;;;;;;;;;;24.50;41.00;;;;;;21082482;28;19970;-62
2022/05/01 12:05:03;;;;;;;;;;;24.60;41.50;;;;;;21082128;28;19974;-62
2022/05/01 12:15:07;;;;;;;;;;;24.70;42.50;;;;;;21063046;28;20019;-63
2022/05/01 12:25:14;;;;;;;;;;;24.70;42.60;;;;;;21080523;28;20305;-60
2022/05/01 12:35:16;;;;;;;;;;;24.90;42.90;;;;;;21061760;28;19978;-64
2022/05/01 12:45:22;;;;;;;;;;;24.90;43.10;;;;;;21080868;28;19924;-61
2022/05/01 12:55:29;;;;;;;;;;;25.00;42.20;;;;;;21078845;28;19971;-60
2022/05/01 13:05:31;;;;;;;;;;;25.20;42.50;;;;;;21079286;28;19950;-60
2022/05/01 13:15:39;;;;;;;;;;;25.30;41.00;;;;;;21086733;28;19935;-61
2022/05/01 13:25:41;;;;;;;;;;;25.20;39.70;;;;;;21095607;28;20368;-60
2022/05/01 13:35:44;;;;;;;;;;;25.20;38.30;;;;;;21094633;28;19970;-60
2022/05/01 13:45:49;;;;;;;;;;;25.40;37.30;;;;;;21093869;28;20063;-61
2022/05/01 13:55:51;;;;;;;;;;;25.40;36.50;;;;;;21093661;28;19970;-60
2022/05/01 14:05:54;;;;;;;;;;;;;;;;;;21091695;28;19924;-61
2022/05/01 14:15:56;;;;;;;;;;;25.80;34.10;;;;;;21090658;28;19924;-59
2022/05/01 14:25:57;;;;;;;;;;;25.70;34.80;;;;;;21089802;28;20000;-60
2022/05/01 14:35:59;;;;;;;;;;;25.70;33.70;;;;;;21093629;28;20018;-60
2022/05/01 14:46:05;;;;;;;;;;;25.80;33.30;;;;;;21092772;28;19927;-60
2022/05/01 14:56:07;;;;;;;;;;;25.70;31.60;;;;;;21087773;28;19924;-60
2022/05/01 15:06:19;;;;;;;;;;;25.70;33.30;;;;;;21087204;28;19999;-60
2022/05/01 15:16:29;;;;;;;;;;;25.60;33.00;;;;;;21085382;28;19924;-59
2022/05/01 15:26:31;;;;;;;;;;;25.60;32.50;;;;;;21085285;28;19931;-61
2022/05/01 15:36:38;;;;;;;;;;;25.70;32.40;;;;;;21065561;28;19928;-60
2022/05/01 15:46:44;;;;;;;;;;;25.60;33.30;;;;;;21087152;28;20423;-60
2022/05/01 15:56:47;;;;;;;;;;;25.60;32.90;;;;;;21086192;28;19978;-61
2022/05/01 16:06:50;;;;;;;;;;;25.60;32.80;;;;;;21081311;28;19931;-59
2022/05/01 16:17:11;;;;;;;;;;;25.80;33.90;;;;;;21083933;28;19924;-60
2022/05/01 16:27:28;;;;;;;;;;;25.70;34.80;;;;;;20660684;28;19952;-60
2022/05/01 16:37:40;;;;;;;;;;;25.60;35.10;;;;;;20661357;28;20144;-60
2022/05/01 16:47:42;;;;;;;;;;;25.50;35.10;;;;;;20658288;28;19937;-60
2022/05/01 16:57:45;;;;;;;;;;;25.40;35.50;;;;;;20753360;28;19958;-60
2022/05/01 17:08:05;;;;;;;;;;;25.10;35.90;;;;;;21079005;28;19924;-60
2022/05/01 17:18:12;;;;;;;;;;;24.60;37.10;;;;;;21079328;28;19924;-59
2022/05/01 17:28:16;;;;;;;;;;;24.20;37.40;;;;;;21078695;28;19924;-60
2022/05/01 17:38:17;;;;;;;;;;;24.00;37.20;;;;;;21078519;28;20384;-60
2022/05/01 17:48:20;;;;;;;;;;;23.40;39.30;;;;;;21078712;28;19924;-60
2022/05/01 17:58:24;;;;;;;;;;;22.90;40.60;;;;;;21081886;28;19924;-60
2022/05/01 18:19:05;;;;;;;;;;;24.00;39.70;;;;;;21092520;28;20020;-58
2022/05/01 18:40:00;;;;;;;;;;;22.70;41.20;;;;;;21089846;28;19931;-60
2022/05/01 18:50:04;;;;;;;;;;;22.70;41.70;;;;;;21089082;28;19974;-60
2022/05/01 19:00:06;;;;;;;;;;;22.60;41.60;;;;;;21086991;28;19978;-60
2022/05/01 19:10:17;;;;;;;;;;;22.50;42.00;;;;;;21086438;28;20359;-60
2022/05/01 19:20:36;;;;;;;;;;;22.40;42.10;;;;;;21087731;28;19954;-59
2022/05/01 19:30:48;;;;;;;;;;;22.20;42.50;;;;;;21085098;28;19924;-59
2022/05/01 19:41:02;;;;;;;;;;;22.10;43.20;;;;;;21085997;28;19924;-62
2022/05/01 20:01:29;;;;;;;;;;;21.70;43.90;;;;;;21087169;28;20012;-61
2022/05/01 20:11:31;;;;;;;;;;;21.50;44.20;;;;;;21082609;28;19931;-60
2022/05/01 20:21:47;;;;;;;;;;;21.30;44.50;;;;;;21064693;28;19924;-59
2022/05/01 20:31:54;;;;;;;;;;;21.10;44.70;;;;;;21081704;28;19928;-60
2022/05/01 20:41:55;;;;;;;;;;;21.00;44.70;;;;;;21081412;28;20368;-59
2022/05/01 20:52:03;;;;;;;;;;;21.00;44.80;;;;;;21079214;28;19925;-61
2022/05/01 21:02:06;;;;;;;;;;;20.90;45.00;;;;;;21078642;28;19924;-60
2022/05/01 21:12:08;;;;;;;;;;;20.90;45.00;;;;;;21078437;28;20291;-60
2022/05/01 21:22:10;;;;;;;;;;;20.80;44.80;;;;;;21078712;28;19924;-60
2022/05/01 21:32:21;;;;;;;;;;;20.70;44.70;;;;;;21079354;28;20007;-60
2022/05/01 21:42:23;;;;;;;;;;;20.60;44.10;;;;;;21076970;28;19928;-59
2022/05/01 21:52:25;;;;;;;;;;;20.50;44.50;;;;;;21092559;28;20367;-60
2022/05/01 22:02:26;;;;;;;;;;;20.50;44.50;;;;;;21093348;28;20470;-61
2022/05/01 22:12:28;;;;;;;;;;;20.40;44.40;;;;;;21091235;28;19924;-60
2022/05/01 22:22:30;;;;;;;;;;;20.20;44.10;;;;;;21091899;28;20296;-60
2022/05/01 22:32:32;;;;;;;;;;;20.10;44.20;;;;;;21089495;28;19924;-60
2022/05/01 22:42:33;;;;;;;;;;;20.00;44.40;;;;;;21088390;28;20018;-59
2022/05/01 22:52:34;;;;;;;;;;;19.90;44.60;;;;;;21086761;28;20010;-59
2022/05/01 23:02:35;;;;;;;;;;;19.80;44.40;;;;;;21087789;28;20011;-60
2022/05/01 23:12:37;;;;;;;;;;;19.70;44.80;;;;;;21085950;28;19924;-59
2022/05/01 23:22:39;;;;;;;;;;;19.60;45.60;;;;;;21066935;28;19924;-60
2022/05/01 23:32:41;;;;;;;;;;;19.60;44.90;;;;;;21083825;28;19925;-60
2022/05/01 23:42:42;;;;;;;;;;;19.40;45.30;;;;;;21083551;28;20383;-59
2022/05/01 23:52:44;;;;;;;;;;;19.20;46.10;;;;;;21065784;28;20332;-59
